Portada
METAR-TAF:

METAR-TAF

Aeroports :

Tòquio Heliport, Japó

latitud: 35-38N, longitud: 139-51E, altitud: 5 m

Observació

L'informe es va fer fa 16 hores i 27 minuts, a les 07:00 UTC
Vent 8 kt del Nord-Est, variant entre Nord i Est
Temperatura 9°C
Humitat 81%
Pressió 1013 hPa
Visibilitat 10 km o més
Escasses núvols a una alçada de 1500 ft
Cel ennuvolat a una alçada de 2000 ft
Cel ennuvolat a una alçada de 2500 ft
xàfecs de pluja

METAR: RJTI 260700Z 05008KT 010V100 9999 -SHRA FEW015 BKN020 BKN025 09/06 Q1013

Hora: 08:27 (23:27 UTC)


TAF: manca

Observacions i pronòstics meteorològics de més de 4000 aeroports (METAR i TAF).

Les estacions disponibles són els punts grocs i vermells al mapa.

Posi el ratolí al punt desitjat per veure el nom de l'estació.

Feu clic per veure les observacions i els pronòstics meteorològics.

Per canviar el mapa: feu clic els botons verds amb una creu de color negre per apropar; al botó verd amb un guió per allunyar la imatge; o en les fletxes verdes per a mapes adjacents.


METAR-TAF: